ROMMA est une association bénévole à but non lucratif. Votre soutien est indispensable : ADHERER à ROMMA ou FAIRE un DON

Voiron - (38, Isère)

Voironnais (300 m)   Longitude: 05° 35' E   Latitude: 45° 23' N Station partenaire n°109
 

Détail journalier du     <<     >>

Température Precipitation Humidité Pression Vent Dir Rafale Dir. rafale Ensol.
Heure (°C) (mm) (%) (hPa) (km/h) (km/h) (min)
01:00 18.907910172N10NNO0
02:00 18.408110172ENE5ENE0
03:00 17.708310172S5S0
04:00 16.808610162O5O0
05:00 16.508810172NNO11NNE0
06:00 16.408810172N10NNO0
07:00 16.508710171N5N0
08:00 18.907810172N13SSE60
09:00 20.407310176SE16SE60
10:00 21.807010165S13SSO60
11:00 22.606910167S18SO60
12:00 24.306110168S21S60
13:00 25.405910165S13OSO60
14:00 27.205310165SSE13ESE60
15:00 27.605710166SSO23SSO60
16:00 28.805210156SSO16S60
17:00 30.204510154NO13NO60
18:00 29.304710152NO6NNO0
19:00 28.405210153O8SO0
20:00 27.706110162OSO8OSO0
21:00 26.606410162ONO5O60
22:00 24.107010172NO6NO0
23:00 22.407410172NNO5NNO0
minuit 21.307810171NNO5NNO0

Graphique du 23-06-2019

 

Serveur OMMA